createdAt,value
2018-05-12T00:01:38.062Z,59.20
2018-05-12T00:04:06.738Z,59.40
2018-05-12T00:06:34.500Z,59.40
2018-05-12T00:09:02.009Z,59.30
2018-05-12T00:11:29.469Z,59.60
2018-05-12T00:13:56.972Z,59.40
2018-05-12T00:16:24.505Z,59.30
2018-05-12T00:18:52.115Z,59.40
2018-05-12T00:21:20.014Z,59.20
2018-05-12T00:23:47.534Z,59.30
2018-05-12T00:26:15.797Z,59.10
2018-05-12T00:28:44.155Z,59.00
2018-05-12T00:31:11.625Z,59.00
2018-05-12T00:33:39.869Z,59.30
2018-05-12T00:36:08.507Z,59.30
2018-05-12T00:38:35.995Z,59.30
2018-05-12T00:41:03.472Z,59.40
2018-05-12T00:43:31.065Z,59.40
2018-05-12T00:46:00.187Z,59.40
2018-05-12T00:48:27.716Z,59.30
2018-05-12T00:50:55.987Z,59.50
2018-05-12T00:53:24.215Z,59.50
2018-05-12T00:55:51.663Z,59.50
2018-05-12T00:58:19.981Z,59.70
2018-05-12T01:00:47.439Z,59.80
2018-05-12T01:03:14.896Z,59.70
2018-05-12T01:05:42.402Z,59.80
2018-05-12T01:08:09.859Z,60.00
2018-05-12T01:10:37.313Z,60.10
2018-05-12T01:13:04.861Z,60.10
2018-05-12T01:15:32.374Z,60.10
2018-05-12T01:17:59.807Z,60.50
2018-05-12T01:20:27.276Z,60.70
2018-05-12T01:22:54.766Z,60.50
2018-05-12T01:25:23.091Z,60.50
2018-05-12T01:27:50.564Z,60.50
2018-05-12T01:30:18.026Z,60.60
2018-05-12T01:32:45.469Z,60.70
2018-05-12T01:35:13.052Z,60.70
2018-05-12T01:37:42.000Z,60.40
2018-05-12T01:40:09.524Z,60.40
2018-05-12T01:42:37.811Z,61.00
2018-05-12T01:45:05.292Z,60.90
2018-05-12T01:47:32.879Z,61.20
2018-05-12T01:50:00.748Z,61.20
2018-05-12T01:52:28.197Z,61.40
2018-05-12T01:54:55.766Z,61.50
2018-05-12T01:57:23.292Z,61.40
2018-05-12T01:59:50.892Z,61.50
2018-05-12T02:02:19.115Z,61.50
2018-05-12T02:04:46.908Z,61.50
2018-05-12T02:07:14.849Z,61.10
2018-05-12T02:09:42.294Z,60.90
2018-05-12T02:12:09.778Z,60.90
2018-05-12T02:14:37.281Z,61.50
2018-05-12T02:17:04.733Z,62.40
2018-05-12T02:19:32.231Z,61.80
2018-05-12T02:21:59.731Z,61.70
2018-05-12T02:24:27.181Z,61.80
2018-05-12T02:26:54.696Z,61.70
2018-05-12T02:29:22.909Z,61.90
2018-05-12T02:31:51.571Z,61.90
2018-05-12T02:34:19.044Z,62.40
2018-05-12T02:36:47.054Z,62.30
2018-05-12T02:39:14.561Z,62.50
2018-05-12T02:41:42.429Z,62.40
2018-05-12T02:44:09.989Z,62.60
2018-05-12T02:46:38.272Z,62.50
2018-05-12T02:49:06.907Z,62.80
2018-05-12T02:51:35.308Z,62.90
2018-05-12T02:54:02.893Z,62.80
2018-05-12T02:56:31.016Z,63.40
2018-05-12T02:58:59.510Z,63.60
2018-05-12T03:01:28.448Z,63.90
2018-05-12T03:04:01.257Z,63.80
2018-05-12T03:06:29.391Z,63.80
2018-05-12T03:08:56.962Z,63.70
2018-05-12T03:11:24.681Z,63.70
2018-05-12T03:13:52.263Z,63.80
2018-05-12T03:16:19.933Z,64.00
2018-05-12T03:18:47.548Z,64.00
2018-05-12T03:21:15.026Z,64.30
2018-05-12T03:23:42.712Z,64.30
2018-05-12T03:26:10.238Z,64.40
2018-05-12T03:28:37.771Z,64.50
2018-05-12T03:31:05.408Z,65.30
2018-05-12T03:33:33.037Z,64.80
2018-05-12T03:36:00.847Z,64.80
2018-05-12T03:38:28.695Z,65.00
2018-05-12T03:40:56.304Z,65.30
2018-05-12T03:43:26.198Z,66.30
2018-05-12T03:45:53.961Z,66.10
2018-05-12T03:48:22.807Z,66.10
2018-05-12T03:50:50.570Z,66.10
2018-05-12T03:53:18.230Z,66.00
2018-05-12T03:55:45.930Z,66.10
2018-05-12T03:58:16.217Z,66.30
2018-05-12T04:00:43.824Z,66.60
2018-05-12T04:03:11.578Z,66.60
2018-05-12T04:05:51.094Z,66.90
2018-05-12T04:11:35.479Z,67.00
2018-05-12T04:14:03.237Z,66.90
2018-05-12T04:16:31.222Z,67.10
2018-05-12T04:18:58.833Z,67.30
2018-05-12T04:21:27.427Z,67.50
2018-05-12T04:23:55.365Z,67.50
2018-05-12T04:26:23.065Z,67.60
2018-05-12T04:28:50.905Z,67.70
2018-05-12T04:31:18.545Z,67.80
2018-05-12T04:33:47.571Z,68.30
2018-05-12T04:36:15.577Z,68.30
2018-05-12T04:38:45.543Z,68.40
2018-05-12T04:41:13.101Z,68.50
2018-05-12T04:43:41.567Z,68.50
2018-05-12T04:46:09.204Z,68.50
2018-05-12T04:48:38.577Z,68.50
2018-05-12T04:51:06.843Z,68.40
2018-05-12T04:53:36.590Z,68.70
2018-05-12T04:56:05.055Z,69.10
2018-05-12T04:58:34.000Z,68.90
2018-05-12T05:01:01.539Z,69.00
2018-05-12T05:03:30.719Z,69.20
2018-05-12T05:05:58.964Z,69.30
2018-05-12T05:08:29.441Z,69.20
2018-05-12T05:10:57.663Z,69.40
2018-05-12T05:13:25.175Z,69.20
2018-05-12T05:15:53.410Z,69.20
2018-05-12T05:18:21.006Z,69.20
2018-05-12T05:20:49.328Z,69.40
2018-05-12T05:23:19.279Z,69.40
2018-05-12T05:25:46.824Z,69.50
2018-05-12T05:28:14.418Z,69.30
2018-05-12T05:30:42.950Z,69.00
2018-05-12T05:33:10.697Z,68.90
2018-05-12T05:35:38.256Z,68.80
2018-05-12T05:38:07.688Z,69.60
2018-05-12T05:40:36.236Z,68.40
2018-05-12T05:43:04.788Z,68.40
2018-05-12T05:45:32.445Z,68.10
2018-05-12T05:48:02.985Z,67.90
2018-05-12T05:50:31.555Z,67.70
2018-05-12T05:53:01.386Z,67.50
2018-05-12T05:55:28.874Z,67.90
2018-05-12T05:57:56.765Z,67.30
2018-05-12T06:00:24.602Z,67.30
2018-05-12T06:02:52.308Z,67.10
2018-05-12T06:05:20.660Z,66.90
2018-05-12T06:07:50.870Z,66.80
2018-05-12T06:10:18.363Z,67.00
2018-05-12T06:12:46.809Z,66.60
2018-05-12T06:15:14.378Z,66.50
2018-05-12T06:17:43.412Z,66.80
2018-05-12T06:20:11.042Z,66.70
2018-05-12T06:22:42.552Z,66.50
2018-05-12T06:25:10.103Z,66.40
2018-05-12T06:27:37.999Z,66.30
2018-05-12T06:30:05.593Z,66.20
2018-05-12T06:32:33.461Z,66.20
2018-05-12T06:35:01.045Z,66.10
2018-05-12T06:37:29.863Z,66.30
2018-05-12T06:39:57.670Z,66.40
2018-05-12T06:42:25.470Z,65.50
2018-05-12T06:44:53.977Z,64.90
2018-05-12T06:47:21.546Z,64.80
2018-05-12T06:49:49.773Z,65.50
2018-05-12T06:52:18.024Z,65.10
2018-05-12T06:54:46.643Z,65.00
2018-05-12T06:57:14.954Z,64.60
2018-05-12T06:59:42.465Z,64.50
2018-05-12T07:02:10.675Z,63.90
2018-05-12T07:04:38.241Z,63.70
2018-05-12T07:07:06.066Z,63.10
2018-05-12T07:09:34.329Z,64.20
2018-05-12T07:12:01.839Z,64.20
2018-05-12T07:14:29.384Z,64.10
2018-05-12T07:16:57.279Z,63.80
2018-05-12T07:19:25.684Z,62.90
2018-05-12T07:21:53.184Z,62.80
2018-05-12T07:24:20.691Z,62.30
2018-05-12T07:26:48.471Z,62.00
2018-05-12T07:29:16.555Z,61.70
2018-05-12T07:31:44.933Z,61.90
2018-05-12T07:34:13.250Z,61.10
2018-05-12T07:36:41.317Z,61.10
2018-05-12T07:39:09.884Z,61.90
2018-05-12T07:41:37.402Z,62.00
2018-05-12T07:44:05.550Z,62.40
2018-05-12T07:46:33.936Z,60.00
2018-05-12T07:49:02.890Z,59.90
2018-05-12T07:51:31.421Z,60.70
2018-05-12T08:05:34.218Z,62.50
2018-05-12T08:08:01.672Z,62.40
2018-05-12T08:10:29.474Z,62.00
2018-05-12T08:12:57.357Z,60.80
2018-05-12T08:15:25.952Z,60.60
2018-05-12T08:17:53.844Z,60.60
2018-05-12T08:20:22.352Z,57.60
2018-05-12T08:22:51.075Z,57.50
2018-05-12T08:25:18.956Z,58.10
2018-05-12T08:27:48.387Z,59.70
2018-05-12T08:30:15.836Z,59.40
2018-05-12T08:32:43.391Z,57.80
2018-05-12T08:35:10.879Z,59.10
2018-05-12T08:37:38.539Z,59.80
2018-05-12T08:48:49.746Z,57.00
2018-05-12T08:51:17.963Z,56.90
2018-05-12T08:53:45.400Z,56.90
2018-05-12T08:56:12.868Z,56.20
2018-05-12T08:58:40.308Z,54.70
2018-05-12T09:01:07.750Z,52.80
2018-05-12T09:03:38.828Z,53.60
2018-05-12T09:06:06.310Z,51.80
2018-05-12T09:22:57.191Z,52.70
2018-05-12T09:25:25.051Z,51.50
2018-05-12T09:27:52.891Z,50.80
2018-05-12T09:30:21.879Z,51.60
2018-05-12T09:32:49.502Z,50.80
2018-05-12T09:35:17.405Z,52.00
2018-05-12T09:37:45.020Z,51.80
2018-05-12T09:40:12.757Z,52.10
2018-05-12T09:42:40.541Z,51.40
2018-05-12T09:45:08.817Z,51.50
2018-05-12T09:47:37.647Z,51.20
2018-05-12T09:50:07.086Z,50.00
2018-05-12T09:52:34.749Z,50.00
2018-05-12T09:55:02.352Z,50.40
2018-05-12T09:57:29.944Z,51.80
2018-05-12T09:59:57.415Z,50.60
2018-05-12T10:02:25.463Z,50.50
2018-05-12T10:04:53.059Z,50.00
2018-05-12T10:07:20.704Z,48.80
2018-05-12T10:09:48.598Z,48.00
2018-05-12T10:12:16.248Z,46.20
2018-05-12T10:14:43.709Z,47.20
2018-05-12T10:17:11.238Z,47.90
2018-05-12T10:19:38.901Z,48.00
2018-05-12T10:22:06.633Z,47.80
2018-05-12T10:24:34.444Z,45.90
2018-05-12T10:27:02.103Z,43.50
2018-05-12T10:29:29.645Z,41.60
2018-05-12T10:31:57.520Z,39.40
2018-05-12T10:34:25.178Z,36.50
2018-05-12T10:36:52.915Z,38.60
2018-05-12T10:39:21.463Z,38.20
2018-05-12T10:41:49.303Z,38.20
2018-05-12T10:44:17.145Z,37.50
2018-05-12T10:46:45.008Z,39.70
2018-05-12T10:49:12.879Z,38.70
2018-05-12T10:51:41.481Z,35.80
2018-05-12T10:54:09.463Z,37.30
2018-05-12T10:56:37.233Z,38.60
2018-05-12T10:59:05.101Z,37.60
2018-05-12T11:01:33.100Z,37.90
2018-05-12T11:04:01.800Z,37.70
2018-05-12T11:06:30.329Z,37.80
2018-05-12T11:08:58.327Z,37.80
2018-05-12T11:11:26.474Z,37.20
2018-05-12T11:13:54.349Z,38.20
2018-05-12T11:16:22.304Z,39.30
2018-05-12T11:18:50.205Z,39.90
2018-05-12T11:21:18.067Z,37.90
2018-05-12T11:23:46.030Z,38.00
2018-05-12T11:26:13.595Z,36.70
2018-05-12T11:28:41.550Z,37.50
2018-05-12T11:31:09.118Z,39.00
2018-05-12T11:33:36.787Z,39.00
2018-05-12T11:36:04.771Z,38.80
2018-05-12T11:38:33.355Z,36.80
2018-05-12T11:41:02.424Z,35.50
2018-05-12T11:43:30.297Z,35.50
2018-05-12T11:46:00.075Z,35.00
2018-05-12T11:48:27.869Z,35.00
2018-05-12T11:50:56.551Z,33.10
2018-05-12T11:53:27.681Z,33.00
2018-05-12T11:55:55.401Z,35.00
2018-05-12T11:58:23.637Z,36.30
2018-05-12T12:00:52.518Z,35.20
2018-05-12T12:03:20.772Z,35.20
2018-05-12T12:05:48.643Z,36.90
2018-05-12T12:08:16.725Z,36.90
2018-05-12T12:10:44.732Z,34.90
2018-05-12T12:13:14.132Z,32.20
2018-05-12T12:15:42.659Z,31.30
2018-05-12T12:18:11.026Z,31.30
2018-05-12T12:20:39.138Z,32.20
2018-05-12T12:23:09.025Z,33.90
2018-05-12T12:25:37.101Z,33.10
2018-05-12T12:28:05.388Z,33.80
2018-05-12T12:30:34.218Z,29.90
2018-05-12T12:33:03.330Z,31.10
2018-05-12T12:35:31.434Z,31.10
2018-05-12T12:38:00.331Z,30.80
2018-05-12T12:40:27.871Z,30.80
2018-05-12T12:42:55.745Z,32.50
2018-05-12T12:45:23.600Z,32.30
2018-05-12T12:47:51.448Z,32.10
2018-05-12T12:50:19.352Z,33.80
2018-05-12T12:52:47.997Z,31.80
2018-05-12T12:55:15.957Z,31.50
2018-05-12T12:57:44.286Z,30.80
2018-05-12T13:00:12.318Z,30.20
2018-05-12T13:02:40.069Z,30.80
2018-05-12T13:05:08.063Z,31.50
2018-05-12T13:07:35.744Z,31.00
2018-05-12T13:10:04.367Z,31.10
2018-05-12T13:12:32.930Z,30.70
2018-05-12T13:15:01.000Z,30.70
2018-05-12T13:17:28.710Z,32.10
2018-05-12T13:19:56.306Z,29.80
2018-05-12T13:22:23.799Z,30.10
2018-05-12T13:24:52.177Z,28.80
2018-05-12T13:27:20.580Z,28.40
2018-05-12T13:29:48.273Z,28.40
2018-05-12T13:32:15.755Z,30.40
2018-05-12T13:34:43.608Z,31.90
2018-05-12T13:37:11.159Z,31.60
2018-05-12T13:39:39.040Z,30.60
2018-05-12T13:42:06.764Z,31.80
2018-05-12T13:44:34.600Z,29.20
2018-05-12T13:47:02.311Z,29.20
2018-05-12T13:49:31.625Z,29.50
2018-05-12T13:51:59.598Z,30.00
2018-05-12T13:54:27.302Z,30.90
2018-05-12T13:56:56.221Z,30.00
2018-05-12T13:59:24.656Z,30.40
2018-05-12T14:01:53.416Z,29.80
2018-05-12T14:04:23.327Z,29.80
2018-05-12T14:06:51.902Z,28.40
2018-05-12T14:09:20.163Z,28.10
2018-05-12T14:11:47.887Z,28.70
2018-05-12T14:14:16.658Z,30.00
2018-05-12T14:16:44.238Z,30.00
2018-05-12T14:19:12.922Z,30.80
2018-05-12T14:21:41.593Z,30.10
2018-05-12T14:24:10.775Z,30.00
2018-05-12T14:26:38.437Z,30.00
2018-05-12T14:29:06.199Z,29.40
2018-05-12T14:31:33.973Z,29.80
2018-05-12T14:34:05.714Z,28.90
2018-05-12T14:36:34.046Z,28.50
2018-05-12T14:39:02.280Z,28.50
2018-05-12T14:41:29.900Z,28.90
2018-05-12T14:43:57.962Z,28.30
2018-05-12T14:46:25.724Z,28.40
2018-05-12T14:48:55.320Z,28.80
2018-05-12T14:51:23.309Z,29.50
2018-05-12T14:53:51.249Z,29.80
2018-05-12T14:56:18.744Z,28.40
2018-05-12T14:58:47.502Z,28.70
2018-05-12T15:01:15.613Z,28.30
2018-05-12T15:03:44.219Z,28.00
2018-05-12T15:06:12.347Z,27.90
2018-05-12T15:08:40.714Z,27.30
2018-05-12T15:11:08.590Z,28.20
2018-05-12T15:13:36.835Z,27.40
2018-05-12T15:16:04.758Z,28.70
2018-05-12T15:18:32.713Z,29.10
2018-05-12T15:21:00.590Z,28.90
2018-05-12T15:23:28.516Z,28.00
2018-05-12T15:25:56.266Z,27.80
2018-05-12T15:28:24.234Z,29.30
2018-05-12T15:30:52.148Z,28.80
2018-05-12T15:33:19.712Z,28.40
2018-05-12T15:35:47.478Z,28.70
2018-05-12T15:38:15.215Z,29.30
2018-05-12T15:40:43.073Z,29.90
2018-05-12T15:43:11.135Z,30.10
2018-05-12T15:45:39.581Z,30.30
2018-05-12T15:48:08.032Z,30.10
2018-05-12T15:50:36.031Z,30.10
2018-05-12T15:53:04.809Z,31.60
2018-05-12T15:55:33.128Z,31.50
2018-05-12T15:58:01.089Z,31.30
2018-05-12T16:00:30.921Z,32.20
2018-05-12T16:02:58.891Z,31.70
2018-05-12T16:05:27.444Z,32.10
2018-05-12T16:07:55.236Z,32.10
2018-05-12T16:10:23.100Z,32.00
